Time;durP1;ratioP1;P1;durP2;ratioP2;P2;SDS_P1;SDS_P2;PMS_P1;PMS_P2;Temp;Humidity;BMP_temperature;BMP_pressure;BME280_temperature;BME280_humidity;BME280_pressure;Samples;Min_cycle;Max_cycle;Signal;HPM_P1;HPM_P2
2022/03/10 00:00:13;;;;;;;;;;;;;;;;;;4220621;28;984;-57
2022/03/10 00:02:47;;;;;;;;;;;;;;;;;;4207454;28;1238;-57
2022/03/10 00:05:08;;;;;;;;;;;;;;;;;;4221228;28;755;-58
2022/03/10 00:07:28;;;;;;;;;;;;;;;;;;4220726;28;872;-57
2022/03/10 00:09:49;;;;;;;;;;;;;;;;;;4220406;28;1913;-57
2022/03/10 00:12:10;;;;;;;;;;;;;;;;;;4204796;28;997;-57
2022/03/10 00:14:30;;;;;;;;;;;;;;;;;;4220300;28;878;-57
2022/03/10 00:16:51;;;;;;;;;;;;;;;;;;4220093;28;991;-57
2022/03/10 00:19:12;;;;;;;;;;;;;;;;;;4205722;28;821;-56
2022/03/10 00:21:33;;;;;;;;;;;;;;;;;;4219815;28;1045;-57
2022/03/10 00:23:54;;;;;;;;;;;;;;;;;;4220014;28;999;-58
2022/03/10 00:26:14;;;;;;;;;;;;;;;;;;4220663;28;825;-57
2022/03/10 00:28:35;;;;;;;;;;;;;;;;;;4205987;28;845;-58
2022/03/10 00:30:56;;;;;;;;;;;;;;;;;;4219596;28;2004;-58
2022/03/10 00:33:17;;;;;;;;;;;;;;;;;;4205263;28;1142;-57
2022/03/10 00:35:37;;;;;;;;;;;;;;;;;;4220477;28;1185;-57
2022/03/10 00:37:58;;;;;;;;;;;;;;;;;;4220559;28;1328;-57
2022/03/10 00:40:19;;;;;;;;;;;;;;;;;;4220327;28;1068;-57
2022/03/10 00:42:39;;;;;;;;;;;;;;;;;;4205040;28;841;-57
2022/03/10 00:45:00;;;;;;;;;;;;;;;;;;4220474;28;840;-57
2022/03/10 00:47:21;;;;;;;;;;;;;;;;;;4220469;28;990;-57
2022/03/10 00:49:43;;;;;;;;;;;;;;;;;;4220135;28;1989;-57
2022/03/10 00:52:04;;;;;;;;;;;;;;;;;;4219716;28;1164;-57
2022/03/10 00:54:24;;;;;;;;;;;;;;;;;;4220066;28;861;-57
2022/03/10 00:56:45;;;;;;;;;;;;;;;;;;4219194;28;887;-57
2022/03/10 00:59:08;;;;;;;;;;;;;;;;;;4217321;28;862;-57
2022/03/10 01:01:29;;;;;;;;;;;;;;;;;;4218357;28;970;-57
2022/03/10 01:03:49;;;;;;;;;;;;;;;;;;4204041;28;837;-57
2022/03/10 01:06:10;;;;;;;;;;;;;;;;;;4219157;28;952;-57
2022/03/10 01:08:30;;;;;;;;;;;;;;;;;;4204722;28;922;-58
2022/03/10 01:10:51;;;;;;;;;;;;;;;;;;4219906;28;1913;-57
2022/03/10 01:13:12;;;;;;;;;;;;;;;;;;4222927;28;1026;-57
2022/03/10 01:15:32;;;;;;;;;;;;;;;;;;4222988;28;926;-57
2022/03/10 01:17:53;;;;;;;;;;;;;;;;;;4222953;28;836;-57
2022/03/10 01:20:14;;;;;;;;;;;;;;;;;;4222783;28;1006;-57
2022/03/10 01:22:35;;;;;;;;;;;;;;;;;;4223000;28;845;-57
2022/03/10 01:24:55;;;;;;;;;;;;;;;;;;4221879;28;1156;-57
2022/03/10 01:27:16;;;;;;;;;;;;;;;;;;4222884;28;973;-57
2022/03/10 01:29:36;;;;;;;;;;;;;;;;;;4222880;28;1955;-57
2022/03/10 01:31:57;;;;;;;;;;;;;;;;;;4222659;28;913;-57
2022/03/10 01:34:18;;;;;;;;;;;;;;;;;;4207418;28;830;-57
2022/03/10 01:36:38;;;;;;;;;;;;;;;;;;4221831;28;853;-57
2022/03/10 01:39:03;;;;;;;;;;;;;;;;;;4222597;28;1060;-57
2022/03/10 01:41:23;;;;;;;;;;;;;;;;;;4222786;28;901;-57
2022/03/10 01:43:44;;;;;;;;;;;;;;;;;;4207432;28;1048;-57
2022/03/10 01:46:06;;;;;;;;;;;;;;;;;;4222069;28;991;-57
2022/03/10 01:48:27;;;;;;;;;;;;;;;;;;4206883;28;1093;-57
2022/03/10 01:50:48;;;;;;;;;;;;;;;;;;4207354;28;1970;-57
2022/03/10 01:53:09;;;;;;;;;;;;;;;;;;4206952;28;1024;-57
2022/03/10 01:55:30;;;;;;;;;;;;;;;;;;4222435;28;825;-57
2022/03/10 01:57:52;;;;;;;;;;;;;;;;;;4221883;28;969;-57
2022/03/10 02:03:55;;;;;;;;;;;;;;;;;;4204058;28;1054;-58
2022/03/10 02:06:16;;;;;;;;;;;;;;;;;;4204924;28;1035;-57
2022/03/10 02:11:21;;;;;;;;;;;;;;;;;;4154222;28;1906;-56
2022/03/10 02:13:42;;;;;;;;;;;;;;;;;;4203592;28;1003;-56
2022/03/10 02:18:41;;;;;;;;;;;;;;;;;;4203286;28;1176;-57
2022/03/10 02:21:01;;;;;;;;;;;;;;;;;;4204687;28;922;-57
2022/03/10 02:23:22;;;;;;;;;;;;;;;;;;4204352;28;1113;-57
2022/03/10 02:25:43;;;;;;;;;;;;;;;;;;4205298;28;992;-57
2022/03/10 02:28:03;;;;;;;;;;;;;;;;;;4205168;28;881;-57
2022/03/10 02:30:24;;;;;;;;;;;;;;;;;;4218344;28;1997;-57
2022/03/10 02:32:45;;;;;;;;;;;;;;;;;;4205394;28;967;-58
2022/03/10 02:35:06;;;;;;;;;;;;;;;;;;4205291;28;966;-57
2022/03/10 02:37:26;;;;;;;;;;;;;;;;;;4218579;28;853;-57
2022/03/10 02:39:47;;;;;;;;;;;;;;;;;;4205127;28;1319;-57
2022/03/10 02:42:08;;;;;;;;;;;;;;;;;;4204907;28;1199;-57
2022/03/10 02:44:28;;;;;;;;;;;;;;;;;;4204900;28;1095;-57
2022/03/10 02:46:49;;;;;;;;;;;;;;;;;;4204565;28;1099;-57
2022/03/10 02:49:10;;;;;;;;;;;;;;;;;;4205246;28;851;-57
2022/03/10 02:51:31;;;;;;;;;;;;;;;;;;4204147;28;1914;-57
2022/03/10 02:53:52;;;;;;;;;;;;;;;;;;4204460;28;983;-57
2022/03/10 02:56:12;;;;;;;;;;;;;;;;;;4204639;28;885;-57
2022/03/10 02:58:33;;;;;;;;;;;;;;;;;;4204354;28;846;-57
2022/03/10 03:00:54;;;;;;;;;;;;;;;;;;4203815;28;918;-57
2022/03/10 03:03:14;;;;;;;;;;;;;;;;;;4203566;28;849;-57
2022/03/10 03:05:35;;;;;;;;;;;;;;;;;;4204205;28;958;-58
2022/03/10 03:07:56;;;;;;;;;;;;;;;;;;4190851;28;1021;-57
2022/03/10 03:10:17;;;;;;;;;;;;;;;;;;4204636;28;1990;-57
2022/03/10 03:12:37;;;;;;;;;;;;;;;;;;4189083;28;1029;-57
2022/03/10 03:14:58;;;;;;;;;;;;;;;;;;4203720;28;1105;-57
2022/03/10 03:17:18;;;;;;;;;;;;;;;;;;4204798;28;962;-57
2022/03/10 03:19:39;;;;;;;;;;;;;;;;;;4204620;28;991;-57
2022/03/10 03:22:00;;;;;;;;;;;;;;;;;;4204605;28;1174;-57
2022/03/10 03:24:21;;;;;;;;;;;;;;;;;;4204088;28;959;-57
2022/03/10 03:26:41;;;;;;;;;;;;;;;;;;4204480;28;815;-57
2022/03/10 03:29:02;;;;;;;;;;;;;;;;;;4188904;28;994;-57
2022/03/10 03:31:22;;;;;;;;;;;;;;;;;;4203184;28;1906;-58
2022/03/10 03:33:43;;;;;;;;;;;;;;;;;;4202955;28;970;-58
2022/03/10 03:36:04;;;;;;;;;;;;;;;;;;4203888;28;1094;-57
2022/03/10 03:38:25;;;;;;;;;;;;;;;;;;4204339;28;830;-57
2022/03/10 03:40:45;;;;;;;;;;;;;;;;;;4203419;28;1184;-57
2022/03/10 03:43:06;;;;;;;;;;;;;;;;;;4204140;28;1034;-57
2022/03/10 03:45:27;;;;;;;;;;;;;;;;;;4189089;28;926;-57
2022/03/10 03:47:48;;;;;;;;;;;;;;;;;;4204377;28;871;-57
2022/03/10 03:50:09;;;;;;;;;;;;;;;;;;4203950;28;1004;-57
2022/03/10 03:52:29;;;;;;;;;;;;;;;;;;4204334;28;941;-57
2022/03/10 03:54:50;;;;;;;;;;;;;;;;;;4188997;28;895;-57
2022/03/10 03:57:11;;;;;;;;;;;;;;;;;;4204104;28;856;-57
2022/03/10 03:59:31;;;;;;;;;;;;;;;;;;4204136;28;868;-58
2022/03/10 04:01:52;;;;;;;;;;;;;;;;;;4204208;28;934;-57
2022/03/10 04:04:13;;;;;;;;;;;;;;;;;;4203994;28;830;-58
2022/03/10 04:06:33;;;;;;;;;;;;;;;;;;4203925;28;927;-58
2022/03/10 04:08:54;;;;;;;;;;;;;;;;;;4204024;28;1216;-58
2022/03/10 04:11:15;;;;;;;;;;;;;;;;;;4203755;28;1906;-58
2022/03/10 04:13:37;;;;;;;;;;;;;;;;;;4202752;28;1341;-57
2022/03/10 04:15:57;;;;;;;;;;;;;;;;;;4203193;28;1039;-57
2022/03/10 04:18:17;;;;;;;;;;;;;;;;;;4202355;28;887;-57
2022/03/10 04:20:38;;;;;;;;;;;;;;;;;;4203724;28;1072;-57
2022/03/10 04:22:59;;;;;;;;;;;;;;;;;;4188472;28;830;-58
2022/03/10 04:25:20;;;;;;;;;;;;;;;;;;4203978;28;949;-57
2022/03/10 04:27:41;;;;;;;;;;;;;;;;;;4202743;28;1062;-57
2022/03/10 04:30:01;;;;;;;;;;;;;;;;;;4203805;28;962;-60
2022/03/10 04:32:22;;;;;;;;;;;;;;;;;;4189059;28;1988;-58
2022/03/10 04:34:43;;;;;;;;;;;;;;;;;;4203811;28;970;-58
2022/03/10 04:37:03;;;;;;;;;;;;;;;;;;4203813;28;822;-58
2022/03/10 04:39:24;;;;;;;;;;;;;;;;;;4203700;28;1052;-58
2022/03/10 04:41:44;;;;;;;;;;;;;;;;;;4203785;28;997;-58
2022/03/10 04:44:05;;;;;;;;;;;;;;;;;;4203613;28;928;-58
2022/03/10 04:46:25;;;;;;;;;;;;;;;;;;4203428;28;897;-58
2022/03/10 04:48:46;;;;;;;;;;;;;;;;;;4203626;28;1038;-58
2022/03/10 04:51:07;;;;;;;;;;;;;;;;;;4203841;28;1922;-58
2022/03/10 04:53:28;;;;;;;;;;;;;;;;;;4203864;28;788;-58
2022/03/10 04:55:48;;;;;;;;;;;;;;;;;;4203853;28;822;-58
2022/03/10 04:58:11;;;;;;;;;;;;;;;;;;4203564;28;969;-58
2022/03/10 05:00:31;;;;;;;;;;;;;;;;;;4203721;28;1225;-59
2022/03/10 05:02:52;;;;;;;;;;;;;;;;;;4203463;28;822;-60
2022/03/10 05:05:13;;;;;;;;;;;;;;;;;;4203728;28;917;-58
2022/03/10 05:07:34;;;;;;;;;;;;;;;;;;4202496;28;857;-59
2022/03/10 05:09:55;;;;;;;;;;;;;;;;;;4203742;28;864;-58
2022/03/10 05:12:15;;;;;;;;;;;;;;;;;;4216578;28;1980;-58
2022/03/10 05:14:36;;;;;;;;;;;;;;;;;;4203565;28;906;-59
2022/03/10 05:16:57;;;;;;;;;;;;;;;;;;4203461;28;892;-59
2022/03/10 05:19:18;;;;;;;;;;;;;;;;;;4202870;28;828;-58
2022/03/10 05:21:38;;;;;;;;;;;;;;;;;;4202368;28;960;-58
2022/03/10 05:23:59;;;;;;;;;;;;;;;;;;4203104;28;895;-58
2022/03/10 05:26:20;;;;;;;;;;;;;;;;;;4216343;28;1040;-58
2022/03/10 05:28:41;;;;;;;;;;;;;;;;;;4203159;28;817;-58
2022/03/10 05:31:01;;;;;;;;;;;;;;;;;;4202825;28;1910;-58
2022/03/10 05:33:22;;;;;;;;;;;;;;;;;;4201960;28;838;-58
2022/03/10 05:35:43;;;;;;;;;;;;;;;;;;4202716;28;989;-58
2022/03/10 05:38:03;;;;;;;;;;;;;;;;;;4202631;28;1258;-59
2022/03/10 05:40:24;;;;;;;;;;;;;;;;;;4202406;28;1291;-58
2022/03/10 05:42:45;;;;;;;;;;;;;;;;;;4203005;28;828;-58
2022/03/10 05:45:06;;;;;;;;;;;;;;;;;;4202355;28;825;-59
2022/03/10 05:47:27;;;;;;;;;;;;;;;;;;4202640;28;1013;-59
2022/03/10 05:49:49;;;;;;;;;;;;;;;;;;4202424;28;1065;-57
2022/03/10 05:52:09;;;;;;;;;;;;;;;;;;4202655;28;1971;-58
2022/03/10 05:54:30;;;;;;;;;;;;;;;;;;4202782;28;1010;-59
2022/03/10 05:56:51;;;;;;;;;;;;;;;;;;4201677;28;1097;-58
2022/03/10 05:59:12;;;;;;;;;;;;;;;;;;4205702;28;1023;-58
2022/03/10 06:01:34;;;;;;;;;;;;;;;;;;4205819;28;1000;-58
2022/03/10 06:03:54;;;;;;;;;;;;;;;;;;4205698;28;875;-58
2022/03/10 06:06:15;;;;;;;;;;;;;;;;;;4205403;28;966;-58
2022/03/10 06:08:36;;;;;;;;;;;;;;;;;;4205719;28;823;-58
2022/03/10 06:10:57;;;;;;;;;;;;;;;;;;4218798;28;1105;-58
2022/03/10 06:13:17;;;;;;;;;;;;;;;;;;4205595;28;979;-60
2022/03/10 06:15:38;;;;;;;;;;;;;;;;;;4205360;28;958;-58
2022/03/10 06:17:59;;;;;;;;;;;;;;;;;;4205484;28;1072;-58
2022/03/10 06:20:20;;;;;;;;;;;;;;;;;;4204044;28;1283;-58
2022/03/10 06:22:40;;;;;;;;;;;;;;;;;;4205285;28;1191;-58
2022/03/10 06:25:01;;;;;;;;;;;;;;;;;;4205321;28;973;-58
2022/03/10 06:27:23;;;;;;;;;;;;;;;;;;4205517;28;1004;-58
2022/03/10 06:29:44;;;;;;;;;;;;;;;;;;4204517;28;869;-59
2022/03/10 06:32:05;;;;;;;;;;;;;;;;;;4205534;28;1983;-58
2022/03/10 06:34:25;;;;;;;;;;;;;;;;;;4205337;28;1006;-58
2022/03/10 06:36:46;;;;;;;;;;;;;;;;;;4205632;28;818;-58
2022/03/10 06:39:07;;;;;;;;;;;;;;;;;;4205135;28;1084;-59
2022/03/10 06:41:27;;;;;;;;;;;;;;;;;;4205177;28;889;-59
2022/03/10 06:43:48;;;;;;;;;;;;;;;;;;4205226;28;1052;-59
2022/03/10 06:46:09;;;;;;;;;;;;;;;;;;4205201;28;1038;-59
2022/03/10 06:48:30;;;;;;;;;;;;;;;;;;4205259;28;808;-58
2022/03/10 06:50:51;;;;;;;;;;;;;;;;;;4205205;28;937;-58
2022/03/10 06:53:12;;;;;;;;;;;;;;;;;;4205245;28;2059;-59
2022/03/10 06:55:33;;;;;;;;;;;;;;;;;;4205382;28;1269;-58
2022/03/10 06:57:54;;;;;;;;;;;;;;;;;;4205278;28;1097;-59
2022/03/10 07:00:15;;;;;;;;;;;;;;;;;;4218321;28;1171;-61
2022/03/10 07:02:35;;;;;;;;;;;;;;;;;;4205313;28;1019;-59
2022/03/10 07:04:56;;;;;;;;;;;;;;;;;;4204766;28;1097;-59
2022/03/10 07:07:17;;;;;;;;;;;;;;;;;;4204532;28;833;-58
2022/03/10 07:09:37;;;;;;;;;;;;;;;;;;4203468;28;1023;-58
2022/03/10 07:12:00;;;;;;;;;;;;;;;;;;4204836;28;1905;-58
2022/03/10 07:14:20;;;;;;;;;;;;;;;;;;4204740;28;1283;-58
2022/03/10 07:16:41;;;;;;;;;;;;;;;;;;4204147;28;960;-58
2022/03/10 07:19:02;;;;;;;;;;;;;;;;;;4203694;28;855;-57
2022/03/10 07:21:22;;;;;;;;;;;;;;;;;;4203506;28;1074;-57
2022/03/10 07:23:43;;;;;;;;;;;;;;;;;;4187994;28;1040;-57
2022/03/10 07:26:03;;;;;;;;;;;;;;;;;;4203478;28;971;-57
2022/03/10 07:28:24;;;;;;;;;;;;;;;;;;4202721;28;1076;-57
2022/03/10 07:30:45;;;;;;;;;;;;;;;;;;4203349;28;799;-57
2022/03/10 07:33:05;;;;;;;;;;;;;;;;;;4203378;28;1913;-57
2022/03/10 07:35:27;;;;;;;;;;;;;;;;;;4202687;28;1033;-57
2022/03/10 07:37:49;;;;;;;;;;;;;;;;;;4219595;28;897;-58
2022/03/10 07:40:10;;;;;;;;;;;;;;;;;;4212361;28;2362;-58
2022/03/10 07:42:32;;;;;;;;;;;;;;;;;;4219807;28;1461;-59
2022/03/10 07:44:52;;;;;;;;;;;;;;;;;;4219671;28;1733;-59
2022/03/10 07:47:13;;;;;;;;;;;;;;;;;;4203285;28;978;-59
2022/03/10 07:49:34;;;;;;;;;;;;;;;;;;4173663;28;911;-60
2022/03/10 07:51:55;;;;;;;;;;;;;;;;;;4205279;28;1976;-60
2022/03/10 07:54:17;;;;;;;;;;;;;;;;;;4217197;28;1043;-59
2022/03/10 07:56:38;;;;;;;;;;;;;;;;;;4218479;28;838;-59
2022/03/10 07:58:58;;;;;;;;;;;;;;;;;;4201055;28;2104;-61
2022/03/10 08:01:19;;;;;;;;;;;;;;;;;;4214650;28;866;-59
2022/03/10 08:03:40;;;;;;;;;;;;;;;;;;4201460;28;928;-60
2022/03/10 08:06:00;;;;;;;;;;;;;;;;;;4201316;28;935;-60
2022/03/10 08:08:21;;;;;;;;;;;;;;;;;;4200973;28;827;-60
2022/03/10 08:10:42;;;;;;;;;;;;;;;;;;4201888;28;910;-60
2022/03/10 08:13:02;;;;;;;;;;;;;;;;;;4201760;28;1980;-60
2022/03/10 08:15:25;;;;;;;;;;;;;;;;;;4200896;28;935;-60
2022/03/10 08:17:46;;;;;;;;;;;;;;;;;;4199929;28;1032;-60
2022/03/10 08:20:07;;;;;;;;;;;;;;;;;;4200723;28;861;-60
2022/03/10 08:22:27;;;;;;;;;;;;;;;;;;4200950;28;884;-60
2022/03/10 08:24:48;;;;;;;;;;;;;;;;;;4211872;28;1288;-62
2022/03/10 08:27:09;;;;;;;;;;;;;;;;;;4218352;28;838;-61
2022/03/10 08:29:30;;;;;;;;;;;;;;;;;;4217229;28;877;-60
2022/03/10 08:31:51;;;;;;;;;;;;;;;;;;4217975;28;936;-61
2022/03/10 08:34:12;;;;;;;;;;;;;;;;;;4211867;28;1037;-61
2022/03/10 08:36:34;;;;;;;;;;;;;;;;;;4208376;28;1302;-62
2022/03/10 08:38:55;;;;;;;;;;;;;;;;;;4216754;28;1246;-61
2022/03/10 08:41:15;;;;;;;;;;;;;;;;;;4217762;28;1005;-61
2022/03/10 08:43:37;;;;;;;;;;;;;;;;;;4202286;28;867;-61
2022/03/10 08:45:58;;;;;;;;;;;;;;;;;;4202504;28;1156;-61
2022/03/10 08:48:19;;;;;;;;;;;;;;;;;;4203902;28;1134;-62
2022/03/10 08:50:41;;;;;;;;;;;;;;;;;;4201127;28;809;-61
2022/03/10 08:53:02;;;;;;;;;;;;;;;;;;4200650;28;1914;-60
2022/03/10 08:55:23;;;;;;;;;;;;;;;;;;4200537;28;1118;-61
2022/03/10 08:57:43;;;;;;;;;;;;;;;;;;4200962;28;965;-59
2022/03/10 09:00:04;;;;;;;;;;;;;;;;;;4199908;28;937;-60
2022/03/10 09:02:24;;;;;;;;;;;;;;;;;;4200568;28;872;-60
2022/03/10 09:04:45;;;;;;;;;;;;;;;;;;4200828;28;946;-60
2022/03/10 09:07:06;;;;;;;;;;;;;;;;;;4200298;28;834;-60
2022/03/10 09:09:27;;;;;;;;;;;;;;;;;;4197913;28;1310;-61
2022/03/10 09:11:47;;;;;;;;;;;;;;;;;;4217618;28;1217;-62
2022/03/10 09:14:08;;;;;;;;;;;;;;;;;;4217058;28;1948;-61
2022/03/10 09:16:29;;;;;;;;;;;;;;;;;;4217870;28;869;-60
2022/03/10 09:18:50;;;;;;;;;;;;;;;;;;4217465;28;1287;-62
2022/03/10 09:21:10;;;;;;;;;;;;;;;;;;4230789;28;1067;-61
2022/03/10 09:23:31;;;;;;;;;;;;;;;;;;4217586;28;935;-60
2022/03/10 09:25:51;;;;;;;;;;;;;;;;;;4200926;28;1507;-61
2022/03/10 09:28:13;;;;;;;;;;;;;;;;;;4215609;28;1118;-62
2022/03/10 09:30:33;;;;;;;;;;;;;;;;;;4201142;28;1660;-61
2022/03/10 09:32:57;;;;;;;;;;;;;;;;;;4202731;28;1993;-61
2022/03/10 09:35:18;;;;;;;;;;;;;;;;;;4210326;28;1227;-61
2022/03/10 09:37:39;;;;;;;;;;;;;;;;;;4220033;28;834;-62
2022/03/10 09:40:00;;;;;;;;;;;;;;;;;;4219925;28;1064;-61
2022/03/10 09:42:21;;;;;;;;;;;;;;;;;;4219206;28;2645;-62
2022/03/10 09:44:43;;;;;;;;;;;;;;;;;;4220928;28;769;-61
2022/03/10 09:47:04;;;;;;;;;;;;;;;;;;4202943;28;1065;-61
2022/03/10 09:49:25;;;;;;;;;;;;;;;;;;4204998;28;875;-62
2022/03/10 09:51:45;;;;;;;;;;;;;;;;;;4205067;28;1109;-61
2022/03/10 09:54:06;;;;;;;;;;;;;;;;;;4209933;28;1909;-61
2022/03/10 09:56:26;;;;;;;;;;;;;;;;;;4221050;28;1211;-61
2022/03/10 09:58:47;;;;;;;;;;;;;;;;;;4221666;28;943;-62
2022/03/10 10:01:08;;;;;;;;;;;;;;;;;;4220141;28;1170;-62
2022/03/10 10:03:28;;;;;;;;;;;;;;;;;;4220792;28;817;-61
2022/03/10 10:05:49;;;;;;;;;;;;;;;;;;4220324;28;905;-62
2022/03/10 10:08:11;;;;;;;;;;;;;;;;;;4205526;28;882;-61
2022/03/10 10:10:32;;;;;;;;;;;;;;;;;;4220633;28;1285;-62
2022/03/10 10:12:53;;;;;;;;;;;;;;;;;;4205787;28;1909;-61
2022/03/10 10:15:13;;;;;;;;;;;;;;;;;;4221204;28;912;-61
2022/03/10 10:17:34;;;;;;;;;;;;;;;;;;4221130;28;814;-62
2022/03/10 10:19:54;;;;;;;;;;;;;;;;;;4205535;28;835;-61
2022/03/10 10:22:15;;;;;;;;;;;;;;;;;;4220659;28;935;-62
2022/03/10 10:24:37;;;;;;;;;;;;;;;;;;4219699;28;875;-63
2022/03/10 10:26:58;;;;;;;;;;;;;;;;;;4220714;28;1105;-61
2022/03/10 10:29:19;;;;;;;;;;;;;;;;;;4220659;28;1317;-62
2022/03/10 10:31:40;;;;;;;;;;;;;;;;;;4205409;28;866;-62
2022/03/10 10:34:01;;;;;;;;;;;;;;;;;;4220986;28;1914;-62
2022/03/10 10:36:24;;;;;;;;;;;;;;;;;;4220616;28;941;-64
2022/03/10 10:38:45;;;;;;;;;;;;;;;;;;4220463;28;1064;-62
2022/03/10 10:41:05;;;;;;;;;;;;;;;;;;4219744;28;1074;-62
2022/03/10 10:43:27;;;;;;;;;;;;;;;;;;4221004;28;925;-62
2022/03/10 10:45:48;;;;;;;;;;;;;;;;;;4220697;28;902;-62
2022/03/10 10:48:09;;;;;;;;;;;;;;;;;;4220758;28;877;-62
2022/03/10 10:50:30;;;;;;;;;;;;;;;;;;4220785;28;851;-61
2022/03/10 10:52:51;;;;;;;;;;;;;;;;;;4220406;28;853;-62
2022/03/10 10:55:12;;;;;;;;;;;;;;;;;;4220585;28;873;-61
2022/03/10 10:57:34;;;;;;;;;;;;;;;;;;4220814;28;857;-62
2022/03/10 10:59:54;;;;;;;;;;;;;;;;;;4220461;28;853;-62
2022/03/10 11:02:15;;;;;;;;;;;;;;;;;;4220331;28;968;-63
2022/03/10 11:04:36;;;;;;;;;;;;;;;;;;4220596;28;876;-62
2022/03/10 11:06:57;;;;;;;;;;;;;;;;;;4220665;28;951;-62
2022/03/10 11:09:18;;;;;;;;;;;;;;;;;;4205122;28;830;-62
2022/03/10 11:11:39;;;;;;;;;;;;;;;;;;4220190;28;1034;-63
2022/03/10 11:14:00;;;;;;;;;;;;;;;;;;4220016;28;1984;-62
2022/03/10 11:16:21;;;;;;;;;;;;;;;;;;4220444;28;953;-62
2022/03/10 11:18:42;;;;;;;;;;;;;;;;;;4220303;28;928;-62
2022/03/10 11:21:05;;;;;;;;;;;;;;;;;;4220314;28;929;-62
2022/03/10 11:23:26;;;;;;;;;;;;;;;;;;4212035;28;1413;-62
2022/03/10 11:25:47;;;;;;;;;;;;;;;;;;4203209;28;910;-63
2022/03/10 11:28:08;;;;;;;;;;;;;;;;;;4204114;28;926;-63
2022/03/10 11:30:28;;;;;;;;;;;;;;;;;;4204598;28;1028;-62
2022/03/10 11:32:49;;;;;;;;;;;;;;;;;;4204616;28;821;-63
2022/03/10 11:35:09;;;;;;;;;;;;;;;;;;4204566;28;1921;-63
2022/03/10 11:37:30;;;;;;;;;;;;;;;;;;4204635;28;986;-62
2022/03/10 11:39:50;;;;;;;;;;;;;;;;;;4203364;28;1307;-62
2022/03/10 11:42:11;;;;;;;;;;;;;;;;;;4202871;28;1158;-63
2022/03/10 11:44:32;;;;;;;;;;;;;;;;;;4203411;28;812;-63
2022/03/10 11:46:53;;;;;;;;;;;;;;;;;;4203334;28;926;-63
2022/03/10 11:49:15;;;;;;;;;;;;;;;;;;4203220;28;866;-63
2022/03/10 11:51:36;;;;;;;;;;;;;;;;;;4203201;28;861;-63
2022/03/10 11:53:57;;;;;;;;;;;;;;;;;;4202131;28;1981;-62
2022/03/10 11:56:17;;;;;;;;;;;;;;;;;;4202355;28;1024;-62
2022/03/10 11:58:38;;;;;;;;;;;;;;;;;;4203044;28;826;-63
2022/03/10 12:00:59;;;;;;;;;;;;;;;;;;4202958;28;940;-63
2022/03/10 12:03:20;;;;;;;;;;;;;;;;;;4201881;28;876;-62
2022/03/10 12:05:41;;;;;;;;;;;;;;;;;;4202272;28;969;-62
2022/03/10 12:08:02;;;;;;;;;;;;;;;;;;4201522;28;896;-63
2022/03/10 12:10:23;;;;;;;;;;;;;;;;;;4197575;28;974;-62
2022/03/10 12:12:45;;;;;;;;;;;;;;;;;;4219177;28;1001;-63
2022/03/10 12:15:07;;;;;;;;;;;;;;;;;;4218818;28;1992;-63
2022/03/10 12:17:28;;;;;;;;;;;;;;;;;;4219633;28;951;-62
2022/03/10 12:19:48;;;;;;;;;;;;;;;;;;4219397;28;1035;-62
2022/03/10 12:22:10;;;;;;;;;;;;;;;;;;4217850;28;2776;-64
2022/03/10 12:24:30;;;;;;;;;;;;;;;;;;4208166;28;1577;-62
2022/03/10 12:26:51;;;;;;;;;;;;;;;;;;4218368;28;848;-62
2022/03/10 12:29:12;;;;;;;;;;;;;;;;;;4210201;28;1525;-62
2022/03/10 12:31:35;;;;;;;;;;;;;;;;;;4202290;28;967;-62
2022/03/10 12:33:55;;;;;;;;;;;;;;;;;;4202013;28;1989;-62
2022/03/10 12:36:16;;;;;;;;;;;;;;;;;;4202019;28;957;-62
2022/03/10 12:38:37;;;;;;;;;;;;;;;;;;4215192;28;1274;-62
2022/03/10 12:40:59;;;;;;;;;;;;;;;;;;4212423;28;1096;-63
2022/03/10 12:43:20;;;;;;;;;;;;;;;;;;4186646;28;1010;-63
2022/03/10 12:45:40;;;;;;;;;;;;;;;;;;4201297;28;888;-63
2022/03/10 12:48:01;;;;;;;;;;;;;;;;;;4201932;28;948;-63
2022/03/10 12:50:22;;;;;;;;;;;;;;;;;;4202180;28;961;-62
2022/03/10 12:52:43;;;;;;;;;;;;;;;;;;4208198;28;1049;-63
2022/03/10 12:55:03;;;;;;;;;;;;;;;;;;4218759;28;1902;-63
2022/03/10 12:57:25;;;;;;;;;;;;;;;;;;4218820;28;839;-65
2022/03/10 12:59:45;;;;;;;;;;;;;;;;;;4219323;28;920;-65
2022/03/10 13:02:06;;;;;;;;;;;;;;;;;;4219140;28;956;-65
2022/03/10 13:04:27;;;;;;;;;;;;;;;;;;4210793;28;1548;-65
2022/03/10 13:06:48;;;;;;;;;;;;;;;;;;4208836;28;1715;-65
2022/03/10 13:09:09;;;;;;;;;;;;;;;;;;4213950;28;1366;-65
2022/03/10 13:11:31;;;;;;;;;;;;;;;;;;4211233;28;1752;-65
2022/03/10 13:13:51;;;;;;;;;;;;;;;;;;4213720;28;1710;-65
2022/03/10 13:16:12;;;;;;;;;;;;;;;;;;4215000;28;1742;-65
2022/03/10 13:18:33;;;;;;;;;;;;;;;;;;4204724;28;1193;-66
2022/03/10 13:20:53;;;;;;;;;;;;;;;;;;4183827;28;915;-64
2022/03/10 13:23:15;;;;;;;;;;;;;;;;;;4211831;28;1346;-61
2022/03/10 13:25:36;;;;;;;;;;;;;;;;;;4216355;28;1221;-61
2022/03/10 13:27:57;;;;;;;;;;;;;;;;;;4207188;28;1615;-62
2022/03/10 13:30:17;;;;;;;;;;;;;;;;;;4217987;28;1017;-62
2022/03/10 13:32:38;;;;;;;;;;;;;;;;;;4201585;28;1615;-65
2022/03/10 13:34:59;;;;;;;;;;;;;;;;;;4171207;28;1917;-64
2022/03/10 13:37:19;;;;;;;;;;;;;;;;;;4202738;28;1294;-63
2022/03/10 13:39:40;;;;;;;;;;;;;;;;;;4218678;28;1334;-63
2022/03/10 13:42:01;;;;;;;;;;;;;;;;;;4218614;28;1188;-65
2022/03/10 13:44:21;;;;;;;;;;;;;;;;;;4218006;28;1320;-63
2022/03/10 13:46:45;;;;;;;;;;;;;;;;;;4218894;28;955;-64
2022/03/10 13:49:05;;;;;;;;;;;;;;;;;;4219883;28;1005;-64
2022/03/10 13:51:26;;;;;;;;;;;;;;;;;;4218721;28;902;-62
2022/03/10 13:53:46;;;;;;;;;;;;;;;;;;4218730;28;1082;-62
2022/03/10 13:56:07;;;;;;;;;;;;;;;;;;4219053;28;1985;-62
2022/03/10 13:58:28;;;;;;;;;;;;;;;;;;4219571;28;992;-62
2022/03/10 14:00:49;;;;;;;;;;;;;;;;;;4204232;28;1034;-62
2022/03/10 14:03:09;;;;;;;;;;;;;;;;;;4204291;28;972;-62
2022/03/10 14:05:30;;;;;;;;;;;;;;;;;;4210849;28;1673;-63
2022/03/10 14:07:51;;;;;;;;;;;;;;;;;;4202170;28;1278;-63
2022/03/10 14:10:12;;;;;;;;;;;;;;;;;;4215317;28;1429;-63
2022/03/10 14:12:33;;;;;;;;;;;;;;;;;;4210629;28;1928;-64
2022/03/10 14:14:54;;;;;;;;;;;;;;;;;;4213646;28;1910;-62
2022/03/10 14:17:15;;;;;;;;;;;;;;;;;;4202853;28;1547;-63
2022/03/10 14:19:36;;;;;;;;;;;;;;;;;;4203088;28;843;-61
2022/03/10 14:22:00;;;;;;;;;;;;;;;;;;4201590;28;1256;-61
2022/03/10 14:24:20;;;;;;;;;;;;;;;;;;4202796;28;824;-61
2022/03/10 14:26:41;;;;;;;;;;;;;;;;;;4202922;28;960;-61
2022/03/10 14:29:03;;;;;;;;;;;;;;;;;;4203549;28;1118;-60
2022/03/10 14:31:24;;;;;;;;;;;;;;;;;;4203550;28;1949;-60
2022/03/10 14:33:46;;;;;;;;;;;;;;;;;;4203352;28;955;-62
2022/03/10 14:36:07;;;;;;;;;;;;;;;;;;4203234;28;1910;-66
2022/03/10 14:38:28;;;;;;;;;;;;;;;;;;4214979;28;1402;-65
2022/03/10 14:40:49;;;;;;;;;;;;;;;;;;4218452;28;1185;-66
2022/03/10 14:43:10;;;;;;;;;;;;;;;;;;4217403;28;1516;-65
2022/03/10 14:45:31;;;;;;;;;;;;;;;;;;4219207;28;1133;-65
2022/03/10 14:47:53;;;;;;;;;;;;;;;;;;4218054;28;1208;-66
2022/03/10 14:50:14;;;;;;;;;;;;;;;;;;4218852;28;881;-63
2022/03/10 14:52:35;;;;;;;;;;;;;;;;;;4219617;28;1385;-63
2022/03/10 14:54:57;;;;;;;;;;;;;;;;;;4220305;28;2253;-64
2022/03/10 14:57:18;;;;;;;;;;;;;;;;;;4219849;28;988;-64
2022/03/10 14:59:39;;;;;;;;;;;;;;;;;;4220106;28;804;-64
2022/03/10 15:02:00;;;;;;;;;;;;;;;;;;4201756;28;896;-64
2022/03/10 15:04:21;;;;;;;;;;;;;;;;;;4219698;28;911;-64
2022/03/10 15:06:41;;;;;;;;;;;;;;;;;;4207380;28;1145;-64
2022/03/10 15:09:02;;;;;;;;;;;;;;;;;;4190669;28;1755;-65
2022/03/10 15:11:23;;;;;;;;;;;;;;;;;;4209077;28;1092;-64
2022/03/10 15:13:45;;;;;;;;;;;;;;;;;;4214967;28;2583;-64
2022/03/10 15:16:06;;;;;;;;;;;;;;;;;;4220160;28;1905;-64
2022/03/10 15:18:28;;;;;;;;;;;;;;;;;;4206801;28;1712;-64
2022/03/10 15:20:48;;;;;;;;;;;;;;;;;;4208986;28;1251;-65
2022/03/10 15:23:09;;;;;;;;;;;;;;;;;;4218812;28;1328;-64
2022/03/10 15:25:29;;;;;;;;;;;;;;;;;;4219979;28;1032;-64
2022/03/10 15:27:50;;;;;;;;;;;;;;;;;;4219789;28;941;-64
2022/03/10 15:30:11;;;;;;;;;;;;;;;;;;4207810;28;1539;-64
2022/03/10 15:32:32;;;;;;;;;;;;;;;;;;4203194;28;993;-65
2022/03/10 15:34:53;;;;;;;;;;;;;;;;;;4202646;28;1029;-64
2022/03/10 15:37:14;;;;;;;;;;;;;;;;;;4205208;28;1118;-64
2022/03/10 15:39:35;;;;;;;;;;;;;;;;;;4219457;28;1213;-63
2022/03/10 15:41:56;;;;;;;;;;;;;;;;;;4215955;28;1360;-64
2022/03/10 15:44:17;;;;;;;;;;;;;;;;;;4202021;28;1004;-64
2022/03/10 15:46:38;;;;;;;;;;;;;;;;;;4207015;28;1274;-64
2022/03/10 15:48:59;;;;;;;;;;;;;;;;;;4219297;28;950;-65
2022/03/10 15:51:26;;;;;;;;;;;;;;;;;;4219871;28;1155;-65
2022/03/10 15:53:47;;;;;;;;;;;;;;;;;;4219095;28;1075;-64
2022/03/10 15:56:08;;;;;;;;;;;;;;;;;;4203902;28;1926;-61
2022/03/10 15:58:29;;;;;;;;;;;;;;;;;;4218703;28;995;-62
2022/03/10 16:00:50;;;;;;;;;;;;;;;;;;4219242;28;869;-62
2022/03/10 16:03:11;;;;;;;;;;;;;;;;;;4218394;28;1388;-61
2022/03/10 16:05:31;;;;;;;;;;;;;;;;;;4219332;28;859;-62
2022/03/10 16:07:53;;;;;;;;;;;;;;;;;;4216003;28;1222;-61
2022/03/10 16:10:17;;;;;;;;;;;;;;;;;;4218343;28;863;-62
2022/03/10 16:12:40;;;;;;;;;;;;;;;;;;4217793;28;1019;-64
2022/03/10 16:15:02;;;;;;;;;;;;;;;;;;4218448;28;870;-62
2022/03/10 16:17:23;;;;;;;;;;;;;;;;;;4213871;28;1195;-64
2022/03/10 16:19:44;;;;;;;;;;;;;;;;;;4200423;28;863;-62
2022/03/10 16:22:06;;;;;;;;;;;;;;;;;;4202242;28;1006;-63
2022/03/10 16:24:27;;;;;;;;;;;;;;;;;;4216502;28;1405;-63
2022/03/10 16:26:48;;;;;;;;;;;;;;;;;;4217425;28;917;-62
2022/03/10 16:29:09;;;;;;;;;;;;;;;;;;4216259;28;1258;-62
2022/03/10 16:31:29;;;;;;;;;;;;;;;;;;4200991;28;883;-62
2022/03/10 16:33:50;;;;;;;;;;;;;;;;;;4200652;28;984;-60